TXG weather

CLOSED Taichung Airport
Taichung City, Taichung (city), Taiwan

Public forecast

Using degrees Celsius for public forecast. Weather courtesy of forecast.io.

Closest aviation weather report (METAR) to Taichung Airport

Closest report is Taichung Ching Chuang Kang Airport, 5.0 nm (9.3 km) NNW. Retrieved 2019/10/19 09:30 UTC (0 seconds ago):

RCMQ 190930Z 02018KT 9999 FEW012 SCT020 23/18 Q1015 NOSIG RMK A2999

Closest aviation forecast (TAF) to Taichung Airport

Closest forecast is Taichung Ching Chuang Kang Airport, 5.0 nm (9.3 km) NNW. Retrieved 2019/10/19 06:21 UTC (3 hours ago):

TAF RCMQ 190500Z 1906/2006 03016KT 9999 FEW012 SCT040 TX27/1906Z TN21/1921Z BECMG 1911/1914 02010KT FEW012 BKN040 BECMG 1923/2002 FEW012 SCT060